createdAt,value
2023-02-27T00:00:42.506Z,102789.81
2023-02-27T00:03:16.121Z,102788.91
2023-02-27T00:05:43.346Z,102789.75
2023-02-27T00:08:17.179Z,102788.88
2023-02-27T00:10:44.324Z,102794.97
2023-02-27T00:13:18.185Z,102805.44
2023-02-27T00:15:50.543Z,102789.69
2023-02-27T00:18:26.806Z,102818.47
2023-02-27T00:20:54.306Z,102782.69
2023-02-27T00:23:32.099Z,102793.13
2023-02-27T00:26:01.365Z,102783.53
2023-02-27T00:28:35.295Z,102800.94
2023-02-27T00:31:02.426Z,102802.69
2023-02-27T00:33:36.191Z,102774.75
2023-02-27T00:36:15.031Z,102798.28
2023-02-27T00:38:52.908Z,102786.94
2023-02-27T00:41:26.484Z,102790.41
2023-02-27T00:43:53.672Z,102772.94
2023-02-27T00:46:27.264Z,102814.81
2023-02-27T00:48:54.316Z,102770.28
2023-02-27T00:51:35.159Z,102763.34
2023-02-27T00:54:05.147Z,102764.22
2023-02-27T00:56:32.563Z,102803.50
2023-02-27T00:59:09.151Z,102767.72
2023-02-27T01:01:47.187Z,102775.56
2023-02-27T01:04:20.698Z,102773.84
2023-02-27T01:06:54.240Z,102770.28
2023-02-27T01:09:28.260Z,102790.31
2023-02-27T01:14:46.951Z,102772.81
2023-02-27T01:17:31.065Z,102800.75
2023-02-27T01:20:00.887Z,102779.81
2023-02-27T01:22:34.189Z,102805.09
2023-02-27T01:25:01.330Z,102754.50
2023-02-27T01:27:28.463Z,102761.47
2023-02-27T01:30:02.296Z,102764.00
2023-02-27T01:33:01.882Z,102806.69
2023-02-27T01:35:37.447Z,102776.16
2023-02-27T01:38:04.446Z,102773.50
2023-02-27T01:40:43.188Z,102771.72
2023-02-27T01:43:17.059Z,102782.16
2023-02-27T01:45:57.197Z,102752.47
2023-02-27T01:48:40.647Z,102776.88
2023-02-27T01:51:27.386Z,102755.13
2023-02-27T01:53:58.177Z,102775.16
2023-02-27T01:56:38.194Z,102769.03
2023-02-27T01:59:09.238Z,102791.63
2023-02-27T02:04:35.112Z,102764.56
2023-02-27T02:07:20.035Z,102776.75
2023-02-27T02:09:59.791Z,102763.66
2023-02-27T02:12:41.339Z,102806.41
2023-02-27T02:15:17.480Z,102781.91
2023-02-27T02:18:35.369Z,102764.44
2023-02-27T02:21:19.187Z,102774.88
2023-02-27T02:24:46.477Z,102805.41
2023-02-27T02:27:22.755Z,102803.69
2023-02-27T02:30:34.704Z,102799.31
2023-02-27T02:33:44.674Z,102804.53
2023-02-27T02:37:04.756Z,102804.50
2023-02-27T02:40:08.330Z,102800.13
2023-02-27T02:42:55.322Z,102793.09
2023-02-27T02:45:33.223Z,102807.94
2023-02-27T02:48:29.551Z,102804.47
2023-02-27T02:51:50.226Z,102804.50
2023-02-27T02:54:44.834Z,102774.75
2023-02-27T02:58:04.427Z,102770.34
2023-02-27T03:00:47.792Z,102810.53
2023-02-27T03:03:48.227Z,102774.69
2023-02-27T03:06:42.073Z,102786.97
2023-02-27T03:09:56.424Z,102808.84
2023-02-27T03:12:35.184Z,102770.34
2023-02-27T03:15:19.860Z,102802.59
2023-02-27T03:18:15.280Z,102772.84
2023-02-27T03:20:48.416Z,102784.19
2023-02-27T03:23:56.447Z,102780.66
2023-02-27T03:26:45.802Z,102782.34
2023-02-27T03:29:35.225Z,102781.44
2023-02-27T03:36:11.486Z,102782.25
2023-02-27T03:39:09.536Z,102807.59
2023-02-27T03:42:11.333Z,102787.41
2023-02-27T03:45:14.204Z,102781.22
2023-02-27T03:47:41.492Z,102789.09
2023-02-27T03:50:18.245Z,102775.97
2023-02-27T03:52:46.018Z,102786.38
2023-02-27T03:55:38.330Z,102773.25
2023-02-27T03:58:08.109Z,102790.66
2023-02-27T04:00:46.726Z,102787.94
2023-02-27T04:03:13.854Z,102832.47
2023-02-27T04:05:54.142Z,102824.63
2023-02-27T04:09:07.298Z,102838.56
2023-02-27T04:12:16.186Z,102788.81
2023-02-27T04:14:59.286Z,102820.22
2023-02-27T04:17:39.208Z,102814.13
2023-02-27T04:20:13.744Z,102841.19
2023-02-27T04:23:04.192Z,102824.47
2023-02-27T04:26:11.901Z,102838.47
2023-02-27T04:35:16.258Z,102811.19
2023-02-27T04:37:56.942Z,102798.06
2023-02-27T04:46:57.322Z,102828.38
2023-02-27T04:56:34.249Z,102821.25
2023-02-27T04:59:11.981Z,102827.34
2023-02-27T05:04:29.223Z,102860.59
2023-02-27T05:17:03.273Z,102890.19
2023-02-27T05:19:40.299Z,102870.00
2023-02-27T05:22:31.220Z,102848.09
2023-02-27T05:25:08.222Z,102850.72
2023-02-27T05:27:56.187Z,102901.34
2023-02-27T05:30:42.893Z,102869.84
2023-02-27T05:33:38.242Z,102862.00
2023-02-27T05:36:22.292Z,102855.78
2023-02-27T05:39:05.242Z,102870.63
2023-02-27T05:41:52.363Z,102878.47
2023-02-27T05:44:49.399Z,102875.78
2023-02-27T05:50:54.279Z,102886.22
2023-02-27T05:59:33.288Z,102921.09
2023-02-27T06:02:07.646Z,102909.59
2023-02-27T06:07:29.306Z,102921.75
2023-02-27T06:10:02.248Z,102930.41
2023-02-27T06:12:31.858Z,102904.94
2023-02-27T06:15:12.786Z,102898.84
2023-02-27T06:17:45.360Z,102941.69
2023-02-27T06:28:34.744Z,102895.31
2023-02-27T06:33:51.184Z,102925.03
2023-02-27T06:36:30.704Z,102897.13
2023-02-27T06:39:04.317Z,102924.22
2023-02-27T06:41:33.884Z,102920.75
2023-02-27T06:44:28.412Z,102905.91
2023-02-27T06:46:58.175Z,102917.38
2023-02-27T06:49:31.276Z,102942.81
2023-02-27T06:52:08.793Z,102907.91
2023-02-27T06:54:43.542Z,102891.44
2023-02-27T06:57:17.414Z,102917.69
2023-02-27T06:59:47.098Z,102921.16
2023-02-27T07:02:23.416Z,102909.72
2023-02-27T07:04:55.318Z,102901.06
2023-02-27T07:11:11.299Z,102956.25
2023-02-27T07:19:38.372Z,102929.19
2023-02-27T07:25:05.450Z,102930.22
2023-02-27T07:27:35.908Z,102932.91
2023-02-27T07:30:13.581Z,102927.69
2023-02-27T07:33:02.033Z,102969.84
2023-02-27T07:35:37.183Z,102959.50
2023-02-27T07:38:05.940Z,102961.44
2023-02-27T07:40:41.079Z,102962.47
2023-02-27T07:43:09.344Z,102952.09
2023-02-27T07:45:37.558Z,102955.69
2023-02-27T07:48:11.601Z,102978.47
2023-02-27T07:50:39.602Z,102984.66
2023-02-27T07:53:15.191Z,102976.09
2023-02-27T07:55:43.440Z,102965.69
2023-02-27T07:58:19.409Z,102976.34
2023-02-27T08:00:47.429Z,102972.13
2023-02-27T08:03:22.706Z,102982.72
2023-02-27T08:05:50.722Z,102961.00
2023-02-27T08:08:25.900Z,102974.22
2023-02-27T08:10:58.193Z,102956.03
2023-02-27T08:14:00.454Z,102975.31
2023-02-27T08:16:22.064Z,102978.91
2023-02-27T08:18:55.368Z,102971.13
2023-02-27T08:21:22.363Z,102976.44
2023-02-27T08:23:55.398Z,102949.41
2023-02-27T08:26:22.943Z,102983.56
2023-02-27T08:28:51.713Z,102992.28
2023-02-27T08:31:25.629Z,102991.47
2023-02-27T08:34:09.429Z,102984.53
2023-02-27T08:36:44.942Z,102988.94
2023-02-27T08:39:12.232Z,102992.47
2023-02-27T08:41:45.474Z,102981.16
2023-02-27T08:44:13.287Z,102983.78
2023-02-27T08:46:46.478Z,102989.88
2023-02-27T08:49:13.375Z,102989.88
2023-02-27T08:51:46.357Z,102992.47
2023-02-27T08:54:13.144Z,102986.34
2023-02-27T08:56:46.318Z,102981.94
2023-02-27T08:59:19.312Z,102998.47
2023-02-27T09:01:52.311Z,103001.94
2023-02-27T09:04:19.375Z,103002.75
2023-02-27T09:06:52.338Z,102999.22
2023-02-27T09:09:26.292Z,103003.53
2023-02-27T09:11:53.056Z,102999.97
2023-02-27T09:14:27.416Z,102993.81
2023-02-27T09:16:54.228Z,103003.31
2023-02-27T09:19:27.336Z,103003.28
2023-02-27T09:21:54.037Z,103005.81
2023-02-27T09:24:27.234Z,102984.75
2023-02-27T09:26:53.915Z,103002.97
2023-02-27T09:29:28.326Z,103004.66
2023-02-27T09:31:55.149Z,102994.19
2023-02-27T09:34:35.323Z,103015.06
2023-02-27T09:37:02.238Z,102996.66
2023-02-27T09:39:36.312Z,103001.81
2023-02-27T09:42:17.217Z,103004.25
2023-02-27T09:44:55.431Z,103003.22
2023-02-27T09:47:35.269Z,103007.41
2023-02-27T09:50:13.376Z,103005.47
2023-02-27T09:52:46.330Z,103015.84
2023-02-27T09:55:19.333Z,103009.38
2023-02-27T09:58:33.307Z,103007.31
2023-02-27T10:01:28.615Z,102991.41
2023-02-27T10:04:25.387Z,103000.72
2023-02-27T10:07:24.276Z,103003.13
2023-02-27T10:10:09.408Z,103003.84
2023-02-27T10:13:22.958Z,102997.53
2023-02-27T10:16:00.095Z,102999.19
2023-02-27T10:18:41.450Z,102991.75
2023-02-27T10:21:14.066Z,102988.25
2023-02-27T10:23:56.415Z,102984.63
2023-02-27T10:26:45.276Z,102984.84
2023-02-27T10:29:38.379Z,102985.34
2023-02-27T10:32:13.567Z,102981.28
2023-02-27T10:34:59.309Z,102980.53
2023-02-27T10:37:41.339Z,102973.72
2023-02-27T10:40:22.269Z,102967.53
2023-02-27T10:42:57.347Z,102973.38
2023-02-27T10:45:31.286Z,102977.13
2023-02-27T10:48:04.311Z,102976.25
2023-02-27T10:50:42.398Z,102977.63
2023-02-27T10:53:26.501Z,102973.78
2023-02-27T10:56:18.728Z,102945.13
2023-02-27T10:59:07.193Z,102962.28
2023-02-27T11:01:53.480Z,102958.50
2023-02-27T11:04:31.744Z,102936.03
2023-02-27T11:07:07.396Z,102951.16
2023-02-27T11:09:35.079Z,102953.00
2023-02-27T11:12:17.437Z,102947.19
2023-02-27T11:14:53.990Z,102953.03
2023-02-27T11:17:30.497Z,102953.41
2023-02-27T11:19:58.733Z,102943.41
2023-02-27T11:22:40.438Z,102952.88
2023-02-27T11:25:28.177Z,102940.81
2023-02-27T11:28:28.425Z,102936.78
2023-02-27T11:31:27.359Z,102950.19
2023-02-27T11:34:04.299Z,102936.31
2023-02-27T11:36:55.087Z,102943.44
2023-02-27T11:39:33.422Z,102952.47
2023-02-27T11:42:19.326Z,102941.22
2023-02-27T11:44:53.880Z,102959.78
2023-02-27T11:47:33.346Z,102954.31
2023-02-27T11:50:30.985Z,102960.44
2023-02-27T11:53:36.378Z,102953.16
2023-02-27T11:56:12.385Z,102952.38
2023-02-27T11:58:55.383Z,102960.34
2023-02-27T12:01:28.568Z,102952.50
2023-02-27T12:04:15.419Z,102944.25
2023-02-27T12:10:05.363Z,102958.94
2023-02-27T12:12:37.977Z,102954.16
2023-02-27T12:15:24.643Z,102939.31
2023-02-27T12:18:12.647Z,102936.09
2023-02-27T12:20:52.404Z,102942.81
2023-02-27T12:23:35.802Z,102941.81
2023-02-27T12:26:15.392Z,102921.06
2023-02-27T12:29:12.934Z,102933.28
2023-02-27T12:32:11.576Z,102904.28
2023-02-27T12:35:03.544Z,102914.31
2023-02-27T12:37:40.458Z,102911.81
2023-02-27T12:40:09.517Z,102916.66
2023-02-27T12:42:59.385Z,102908.56
2023-02-27T12:45:52.357Z,102910.59
2023-02-27T12:48:59.398Z,102911.72
2023-02-27T12:51:44.184Z,102897.97
2023-02-27T12:54:49.454Z,102913.28
2023-02-27T12:57:32.171Z,102911.50
2023-02-27T13:00:24.461Z,102918.34
2023-02-27T13:02:51.953Z,102920.53
2023-02-27T13:05:42.415Z,102892.97
2023-02-27T13:08:12.061Z,102910.72
2023-02-27T13:11:11.502Z,102900.56
2023-02-27T13:13:49.851Z,102915.31
2023-02-27T13:16:43.978Z,102926.53
2023-02-27T13:19:20.294Z,102905.66
2023-02-27T13:22:02.441Z,102922.22
2023-02-27T13:24:37.388Z,102910.22
2023-02-27T13:27:16.240Z,102901.44
2023-02-27T13:29:48.735Z,102911.84
2023-02-27T13:32:44.507Z,102902.25
2023-02-27T13:35:28.281Z,102913.88
2023-02-27T13:38:08.412Z,102911.03
2023-02-27T13:40:39.739Z,102908.59
2023-02-27T13:43:51.051Z,102916.09
2023-02-27T13:46:26.765Z,102899.50
2023-02-27T13:49:19.990Z,102907.19
2023-02-27T13:51:53.508Z,102893.09
2023-02-27T13:54:36.468Z,102894.78
2023-02-27T13:57:08.914Z,102896.38
2023-02-27T13:59:47.549Z,102899.16
2023-02-27T14:02:14.600Z,102882.81
2023-02-27T14:05:03.003Z,102897.31
2023-02-27T14:07:55.974Z,102892.38
2023-02-27T14:10:38.412Z,102901.69
2023-02-27T14:13:06.672Z,102900.38
2023-02-27T14:15:34.674Z,102903.78
2023-02-27T14:18:20.109Z,102892.78
2023-02-27T14:20:59.484Z,102903.31
2023-02-27T14:23:28.043Z,102896.28
2023-02-27T14:26:03.407Z,102894.00
2023-02-27T14:28:47.681Z,102889.13
2023-02-27T14:31:38.569Z,102898.75
2023-02-27T14:34:12.527Z,102882.69
2023-02-27T14:37:03.435Z,102893.31
2023-02-27T14:39:35.398Z,102893.31
2023-02-27T14:42:45.457Z,102896.00
2023-02-27T14:45:33.009Z,102898.44
2023-02-27T14:47:59.895Z,102902.19
2023-02-27T14:50:44.410Z,102900.50
2023-02-27T14:53:24.236Z,102901.69
2023-02-27T14:56:05.388Z,102891.38
2023-02-27T14:58:32.197Z,102913.31
2023-02-27T15:01:15.483Z,102908.06
2023-02-27T15:03:48.941Z,102898.53
2023-02-27T15:06:30.675Z,102905.34
2023-02-27T15:08:57.484Z,102917.03
2023-02-27T15:11:31.466Z,102910.13
2023-02-27T15:14:08.475Z,102902.53
2023-02-27T15:16:41.934Z,102905.44
2023-02-27T15:19:22.442Z,102907.94
2023-02-27T15:22:04.038Z,102898.00
2023-02-27T15:24:49.772Z,102905.22
2023-02-27T15:27:27.485Z,102903.09
2023-02-27T15:29:57.227Z,102909.19
2023-02-27T15:32:40.462Z,102906.66
2023-02-27T15:35:25.693Z,102898.78
2023-02-27T15:38:06.574Z,102890.84
2023-02-27T15:40:42.869Z,102890.97
2023-02-27T15:43:16.469Z,102902.34
2023-02-27T15:45:43.677Z,102889.06
2023-02-27T15:48:22.038Z,102872.19
2023-02-27T15:50:54.851Z,102898.59
2023-02-27T15:53:33.610Z,102896.44
2023-02-27T15:56:17.615Z,102890.72
2023-02-27T15:59:03.520Z,102899.72
2023-02-27T16:01:35.116Z,102898.81
2023-02-27T16:04:20.893Z,102901.38
2023-02-27T16:07:00.763Z,102895.09
2023-02-27T16:09:40.605Z,102884.19
2023-02-27T16:12:37.192Z,102892.44
2023-02-27T16:15:40.492Z,102900.75
2023-02-27T16:18:14.598Z,102896.78
2023-02-27T16:20:48.745Z,102903.09
2023-02-27T16:23:36.486Z,102900.72
2023-02-27T16:26:09.164Z,102893.94
2023-02-27T16:28:45.473Z,102897.63
2023-02-27T16:31:30.635Z,102904.84
2023-02-27T16:34:07.638Z,102882.41
2023-02-27T16:36:40.950Z,102898.28
2023-02-27T16:39:19.479Z,102893.06
2023-02-27T16:41:46.332Z,102898.44
2023-02-27T16:44:19.524Z,102909.84
2023-02-27T16:46:46.595Z,102900.28
2023-02-27T16:49:29.522Z,102903.00
2023-02-27T16:51:57.197Z,102909.38
2023-02-27T16:54:30.598Z,102891.28
2023-02-27T16:57:03.830Z,102904.47
2023-02-27T16:59:40.571Z,102883.84
2023-02-27T17:02:18.679Z,102918.09
2023-02-27T17:04:54.638Z,102910.31
2023-02-27T17:07:21.892Z,102898.19
2023-02-27T17:09:55.760Z,102899.19
2023-02-27T17:12:53.464Z,102911.56
2023-02-27T17:15:27.656Z,102896.19
2023-02-27T17:17:54.568Z,102906.06
2023-02-27T17:20:37.214Z,102919.28
2023-02-27T17:23:11.348Z,102927.47
2023-02-27T17:25:41.105Z,102935.63
2023-02-27T17:28:14.472Z,102929.72
2023-02-27T17:30:41.574Z,102937.81
2023-02-27T17:33:14.534Z,102944.09
2023-02-27T17:35:50.418Z,102939.03
2023-02-27T17:38:23.539Z,102940.09
2023-02-27T17:40:50.252Z,102938.59
2023-02-27T17:43:23.552Z,102963.13
2023-02-27T17:45:50.224Z,102962.38
2023-02-27T17:48:23.535Z,102959.88
2023-02-27T17:50:50.426Z,102966.13
2023-02-27T17:53:23.596Z,102955.78
2023-02-27T17:55:50.367Z,102961.09
2023-02-27T17:58:18.814Z,102975.97
2023-02-27T18:00:52.892Z,102975.16
2023-02-27T18:03:32.661Z,102969.06
2023-02-27T18:05:59.530Z,102977.75
2023-02-27T18:08:26.260Z,102982.16
2023-02-27T18:11:03.656Z,102988.25
2023-02-27T18:13:30.778Z,102976.06
2023-02-27T18:16:11.664Z,102983.00
2023-02-27T18:18:40.410Z,102987.44
2023-02-27T18:21:29.645Z,102984.00
2023-02-27T18:23:56.579Z,102979.66
2023-02-27T18:26:35.905Z,102989.34
2023-02-27T18:29:07.820Z,102978.03
2023-02-27T18:31:47.680Z,102976.28
2023-02-27T18:34:20.734Z,102977.22
2023-02-27T18:37:00.637Z,102983.38
2023-02-27T18:39:33.671Z,102976.50
2023-02-27T18:42:00.715Z,102967.81
2023-02-27T18:44:34.574Z,102969.59
2023-02-27T18:47:07.525Z,102960.06
2023-02-27T18:49:41.164Z,102980.16
2023-02-27T18:52:08.044Z,102977.53
2023-02-27T18:54:43.693Z,102979.28
2023-02-27T18:57:10.814Z,102988.88
2023-02-27T18:59:44.912Z,102989.78
2023-02-27T19:02:17.540Z,102971.44
2023-02-27T19:04:54.170Z,102980.25
2023-02-27T19:07:29.567Z,102989.94
2023-02-27T19:10:02.573Z,103000.44
2023-02-27T19:12:29.589Z,103001.38
2023-02-27T19:15:05.532Z,102974.34
2023-02-27T19:17:40.922Z,102997.94
2023-02-27T19:20:08.171Z,103001.47
2023-02-27T19:22:47.799Z,102989.34
2023-02-27T19:25:22.865Z,103000.72
2023-02-27T19:28:05.472Z,103007.75
2023-02-27T19:30:38.698Z,102998.22
2023-02-27T19:33:12.611Z,103004.31
2023-02-27T19:35:45.708Z,102990.38
2023-02-27T19:38:18.523Z,102993.03
2023-02-27T19:40:46.481Z,102999.19
2023-02-27T19:43:21.650Z,103001.84
2023-02-27T19:45:55.570Z,103005.38
2023-02-27T19:48:29.599Z,102998.41
2023-02-27T19:50:56.313Z,103015.06
2023-02-27T19:53:30.097Z,103002.84
2023-02-27T19:56:06.076Z,102997.63
2023-02-27T19:58:40.635Z,103015.97
2023-02-27T20:01:20.182Z,103015.13
2023-02-27T20:03:53.684Z,102999.44
2023-02-27T20:06:23.389Z,103012.53
2023-02-27T20:08:57.570Z,103004.69
2023-02-27T20:11:30.570Z,103009.94
2023-02-27T20:14:04.648Z,103013.44
2023-02-27T20:16:42.650Z,103006.47
2023-02-27T20:19:19.641Z,103012.56
2023-02-27T20:21:47.259Z,103006.47
2023-02-27T20:24:21.733Z,103009.09
2023-02-27T20:26:57.582Z,103013.44
2023-02-27T20:29:28.289Z,103003.84
2023-02-27T20:32:04.801Z,103018.72
2023-02-27T20:34:52.094Z,103020.44
2023-02-27T20:37:26.616Z,103016.09
2023-02-27T20:39:53.430Z,103012.56
2023-02-27T20:42:26.576Z,103023.91
2023-02-27T20:44:53.531Z,103009.94
2023-02-27T20:47:26.525Z,103015.19
2023-02-27T20:49:53.437Z,103018.66
2023-02-27T20:52:26.718Z,103030.00
2023-02-27T20:54:53.449Z,103023.00
2023-02-27T20:57:26.633Z,103025.63
2023-02-27T20:59:53.460Z,103019.53
2023-02-27T21:02:26.633Z,103024.75
2023-02-27T21:05:00.735Z,103027.34
2023-02-27T21:07:27.439Z,103018.63
2023-02-27T21:10:00.618Z,103015.09
2023-02-27T21:12:27.290Z,103019.47
2023-02-27T21:15:00.570Z,103011.59
2023-02-27T21:17:36.765Z,103014.19
2023-02-27T21:20:12.722Z,103015.06
2023-02-27T21:22:39.405Z,103020.31
2023-02-27T21:25:13.907Z,103020.31
2023-02-27T21:27:40.624Z,103028.16
2023-02-27T21:30:15.724Z,103034.28
2023-02-27T21:32:42.696Z,103039.50
2023-02-27T21:35:22.617Z,103036.84
2023-02-27T21:37:49.285Z,103040.34
2023-02-27T21:40:26.827Z,103042.97
2023-02-27T21:43:00.558Z,103046.44
2023-02-27T21:45:27.229Z,103049.06
2023-02-27T21:48:00.609Z,103046.44
2023-02-27T21:50:29.417Z,103036.81
2023-02-27T21:53:02.586Z,103031.59
2023-02-27T21:55:29.445Z,103043.81
2023-02-27T21:58:04.279Z,103036.84
2023-02-27T22:00:31.590Z,103031.59
2023-02-27T22:03:04.623Z,103043.81
2023-02-27T22:05:37.691Z,103046.47
2023-02-27T22:08:11.635Z,103041.25
2023-02-27T22:10:48.331Z,103041.25
2023-02-27T22:13:22.618Z,103040.38
2023-02-27T22:15:56.138Z,103037.78
2023-02-27T22:18:23.066Z,103031.69
2023-02-27T22:20:57.079Z,103029.03
2023-02-27T22:23:23.841Z,103033.44
2023-02-27T22:26:13.637Z,103039.53
2023-02-27T22:28:47.630Z,103042.19
2023-02-27T22:31:29.016Z,103019.50
2023-02-27T22:34:06.853Z,103036.94
2023-02-27T22:36:48.623Z,103050.06
2023-02-27T22:39:15.324Z,103054.44
2023-02-27T22:41:48.622Z,103050.94
2023-02-27T22:44:16.863Z,103050.06
2023-02-27T22:46:53.704Z,103047.44
2023-02-27T22:49:23.556Z,103043.97
2023-02-27T22:51:58.644Z,103044.84
2023-02-27T22:54:25.360Z,103064.06
2023-02-27T22:56:59.625Z,103057.09
2023-02-27T22:59:26.677Z,103056.22
2023-02-27T23:02:02.002Z,103052.72
2023-02-27T23:04:29.096Z,103056.22
2023-02-27T23:07:02.609Z,103053.59
2023-02-27T23:09:30.376Z,103049.25
2023-02-27T23:12:03.610Z,103061.50
2023-02-27T23:14:30.445Z,103046.63
2023-02-27T23:17:03.711Z,103055.38
2023-02-27T23:19:30.481Z,103059.72
2023-02-27T23:22:03.635Z,103054.50
2023-02-27T23:24:30.417Z,103057.09
2023-02-27T23:27:05.625Z,103056.25
2023-02-27T23:29:44.617Z,103058.84
2023-02-27T23:32:18.018Z,103045.78
2023-02-27T23:34:50.694Z,103061.50
2023-02-27T23:37:33.716Z,103062.34
2023-02-27T23:40:06.706Z,103063.19
2023-02-27T23:42:34.812Z,103063.22
2023-02-27T23:45:13.834Z,103051.00
2023-02-27T23:47:49.296Z,103054.47
2023-02-27T23:50:22.904Z,103064.06
2023-02-27T23:52:51.761Z,103069.31
2023-02-27T23:55:27.346Z,103063.16
2023-02-27T23:57:55.740Z,103056.19
